< Typhoon 197017 1970 Season Typhoon 197019 >
Typhoon 197018 (IRIS)
General InformationTrack Information on Google Maps || Disaster Info.ResourceGoogle EarthGE AnimationAtom FeedGeoJSON
Detalied Best Track (Time Zone = UTC)
Year Month Day Hour Lat. Long. Pressure (hPa) Wind (kt) Class Image Chart
1970 10 2 00 11.5 112.3 1008 0 2 -- Chart
1970 10 2 06 11.3 112.0 1006 0 2 -- Chart
1970 10 2 12 11.6 111.6 1006 0 2 -- Chart
1970 10 2 18 12.3 111.8 1006 0 2 -- Chart
1970 10 3 00 13.0 111.9 1006 0 2 -- Chart
1970 10 3 06 13.9 111.9 1006 0 2 -- Chart
1970 10 3 12 14.4 111.7 1002 0 2 -- Chart
1970 10 3 18 14.7 111.6 1000 0 2 -- Chart
1970 10 4 00 15.2 111.5 990 0 9 -- Chart
1970 10 4 06 15.6 111.5 990 0 9 -- Chart
1970 10 4 12 16.0 111.5 990 0 9 -- Chart
1970 10 4 18 16.5 111.6 990 0 9 -- Chart
1970 10 5 00 17.2 112.1 980 0 9 -- Chart
1970 10 5 06 17.6 112.6 975 0 9 -- Chart
1970 10 5 12 18.1 113.0 970 0 9 -- Chart
1970 10 5 18 18.7 113.0 965 0 9 -- Chart
1970 10 6 00 19.4 113.2 965 0 9 -- Chart
1970 10 6 06 19.9 113.8 960 0 9 -- Chart
1970 10 6 12 20.1 114.2 965 0 9 -- Chart
1970 10 6 18 20.5 114.4 970 0 9 -- Chart
1970 10 7 00 20.5 114.5 975 0 9 -- Chart
1970 10 7 06 20.9 114.8 980 0 9 -- Chart
1970 10 7 12 21.1 114.9 980 0 9 -- Chart
1970 10 7 18 21.2 115.0 990 0 9 -- Chart
1970 10 8 00 21.3 115.4 992 0 9 -- Chart
1970 10 8 06 21.4 115.9 1002 0 2 -- Chart
1970 10 8 12 21.5 116.3 1004 0 2 -- Chart
1970 10 8 18 21.5 116.6 1006 0 2 -- Chart
Japan Meteorological Agency Best Track Data | Correction Date : 1989-06-01
< Typhoon 197017 1970 Season Typhoon 197019 >

Help